sensor_id;sensor_type;location;lat;lon;timestamp;P1;durP1;ratioP1;P2;durP2;ratioP2
45007;SDS011;30743;52.008;5.644;2022-12-05T00:02:02;38.60;;;21.17;;
45007;SDS011;30743;52.008;5.644;2022-12-05T00:04:03;35.90;;;19.00;;
45007;SDS011;30743;52.008;5.644;2022-12-05T00:06:31;34.38;;;19.80;;
45007;SDS011;30743;52.008;5.644;2022-12-05T00:08:58;34.17;;;20.30;;
45007;SDS011;30743;52.008;5.644;2022-12-05T00:11:27;36.75;;;19.42;;
45007;SDS011;30743;52.008;5.644;2022-12-05T00:13:55;36.95;;;20.30;;
45007;SDS011;30743;52.008;5.644;2022-12-05T00:16:23;38.33;;;20.25;;
45007;SDS011;30743;52.008;5.644;2022-12-05T00:18:50;33.33;;;19.45;;
45007;SDS011;30743;52.008;5.644;2022-12-05T00:21:20;36.30;;;20.58;;
45007;SDS011;30743;52.008;5.644;2022-12-05T00:23:47;36.25;;;21.20;;
45007;SDS011;30743;52.008;5.644;2022-12-05T00:26:13;34.75;;;19.80;;
45007;SDS011;30743;52.008;5.644;2022-12-05T00:28:39;42.92;;;20.63;;
45007;SDS011;30743;52.008;5.644;2022-12-05T00:31:05;36.03;;;20.35;;
45007;SDS011;30743;52.008;5.644;2022-12-05T00:33:32;36.72;;;21.58;;
45007;SDS011;30743;52.008;5.644;2022-12-05T00:36:05;39.92;;;22.23;;
45007;SDS011;30743;52.008;5.644;2022-12-05T00:38:33;34.53;;;19.65;;
45007;SDS011;30743;52.008;5.644;2022-12-05T00:41:05;37.35;;;19.65;;
45007;SDS011;30743;52.008;5.644;2022-12-05T00:43:33;36.92;;;21.15;;
45007;SDS011;30743;52.008;5.644;2022-12-05T00:46:08;38.28;;;21.05;;
45007;SDS011;30743;52.008;5.644;2022-12-05T00:48:41;39.15;;;21.42;;
45007;SDS011;30743;52.008;5.644;2022-12-05T00:51:12;39.45;;;21.50;;
45007;SDS011;30743;52.008;5.644;2022-12-05T00:53:38;41.55;;;21.15;;
45007;SDS011;30743;52.008;5.644;2022-12-05T00:56:04;36.83;;;19.85;;
45007;SDS011;30743;52.008;5.644;2022-12-05T00:58:32;42.00;;;21.50;;
45007;SDS011;30743;52.008;5.644;2022-12-05T01:01:12;38.72;;;20.75;;
45007;SDS011;30743;52.008;5.644;2022-12-05T01:03:39;37.80;;;20.27;;
45007;SDS011;30743;52.008;5.644;2022-12-05T01:06:06;36.03;;;20.05;;
45007;SDS011;30743;52.008;5.644;2022-12-05T01:08:32;39.17;;;20.42;;
45007;SDS011;30743;52.008;5.644;2022-12-05T01:10:58;37.67;;;19.88;;
45007;SDS011;30743;52.008;5.644;2022-12-05T01:13:25;37.40;;;20.00;;
45007;SDS011;30743;52.008;5.644;2022-12-05T01:15:51;39.40;;;20.55;;
45007;SDS011;30743;52.008;5.644;2022-12-05T01:18:18;36.63;;;20.38;;
45007;SDS011;30743;52.008;5.644;2022-12-05T01:20:44;38.67;;;20.17;;
45007;SDS011;30743;52.008;5.644;2022-12-05T01:23:10;36.13;;;21.15;;
45007;SDS011;30743;52.008;5.644;2022-12-05T01:25:39;36.40;;;21.15;;
45007;SDS011;30743;52.008;5.644;2022-12-05T01:28:06;38.65;;;20.23;;
45007;SDS011;30743;52.008;5.644;2022-12-05T01:30:32;31.52;;;19.13;;
45007;SDS011;30743;52.008;5.644;2022-12-05T01:33:01;37.40;;;20.05;;
45007;SDS011;30743;52.008;5.644;2022-12-05T01:35:26;36.97;;;20.35;;
45007;SDS011;30743;52.008;5.644;2022-12-05T01:37:54;39.30;;;21.30;;
45007;SDS011;30743;52.008;5.644;2022-12-05T01:40:20;37.50;;;20.00;;
45007;SDS011;30743;52.008;5.644;2022-12-05T01:42:45;39.60;;;21.92;;
45007;SDS011;30743;52.008;5.644;2022-12-05T01:45:17;38.97;;;20.42;;
45007;SDS011;30743;52.008;5.644;2022-12-05T01:47:50;40.03;;;22.17;;
45007;SDS011;30743;52.008;5.644;2022-12-05T01:50:16;45.15;;;21.15;;
45007;SDS011;30743;52.008;5.644;2022-12-05T01:52:41;38.60;;;19.88;;
45007;SDS011;30743;52.008;5.644;2022-12-05T01:55:09;37.15;;;19.88;;
45007;SDS011;30743;52.008;5.644;2022-12-05T01:57:37;38.17;;;20.77;;
45007;SDS011;30743;52.008;5.644;2022-12-05T02:00:07;34.78;;;19.92;;
45007;SDS011;30743;52.008;5.644;2022-12-05T02:02:35;37.05;;;20.27;;
45007;SDS011;30743;52.008;5.644;2022-12-05T02:05:06;33.60;;;19.08;;
45007;SDS011;30743;52.008;5.644;2022-12-05T02:07:35;36.45;;;20.23;;
45007;SDS011;30743;52.008;5.644;2022-12-05T02:10:05;32.50;;;19.38;;
45007;SDS011;30743;52.008;5.644;2022-12-05T02:12:31;33.05;;;18.73;;
45007;SDS011;30743;52.008;5.644;2022-12-05T02:20:21;35.65;;;19.23;;
45007;SDS011;30743;52.008;5.644;2022-12-05T02:25:38;33.88;;;18.70;;
45007;SDS011;30743;52.008;5.644;2022-12-05T02:31:12;35.10;;;20.13;;
45007;SDS011;30743;52.008;5.644;2022-12-05T02:36:44;35.20;;;19.42;;
45007;SDS011;30743;52.008;5.644;2022-12-05T02:39:21;32.77;;;18.07;;
45007;SDS011;30743;52.008;5.644;2022-12-05T02:42:02;34.90;;;19.00;;
45007;SDS011;30743;52.008;5.644;2022-12-05T02:44:55;33.65;;;18.63;;
45007;SDS011;30743;52.008;5.644;2022-12-05T02:47:25;35.60;;;19.13;;
45007;SDS011;30743;52.008;5.644;2022-12-05T02:49:55;33.78;;;18.45;;
45007;SDS011;30743;52.008;5.644;2022-12-05T02:52:22;32.13;;;17.95;;
45007;SDS011;30743;52.008;5.644;2022-12-05T02:54:49;36.17;;;19.42;;
45007;SDS011;30743;52.008;5.644;2022-12-05T02:57:17;35.63;;;21.23;;
45007;SDS011;30743;52.008;5.644;2022-12-05T02:59:44;37.55;;;20.33;;
45007;SDS011;30743;52.008;5.644;2022-12-05T03:05:29;33.03;;;18.90;;
45007;SDS011;30743;52.008;5.644;2022-12-05T03:08:01;38.70;;;19.77;;
45007;SDS011;30743;52.008;5.644;2022-12-05T03:10:30;36.05;;;20.48;;
45007;SDS011;30743;52.008;5.644;2022-12-05T03:13:03;33.55;;;18.95;;
45007;SDS011;30743;52.008;5.644;2022-12-05T03:15:35;37.38;;;21.73;;
45007;SDS011;30743;52.008;5.644;2022-12-05T03:20:34;34.38;;;20.02;;
45007;SDS011;30743;52.008;5.644;2022-12-05T03:23:07;38.90;;;20.42;;
45007;SDS011;30743;52.008;5.644;2022-12-05T03:25:47;38.72;;;20.15;;
45007;SDS011;30743;52.008;5.644;2022-12-05T03:28:27;38.13;;;21.50;;
45007;SDS011;30743;52.008;5.644;2022-12-05T03:30:58;37.60;;;18.73;;
45007;SDS011;30743;52.008;5.644;2022-12-05T03:33:27;36.92;;;19.98;;
45007;SDS011;30743;52.008;5.644;2022-12-05T03:36:13;35.83;;;19.33;;
45007;SDS011;30743;52.008;5.644;2022-12-05T03:39:24;34.28;;;19.42;;
45007;SDS011;30743;52.008;5.644;2022-12-05T03:41:38;36.28;;;19.88;;
45007;SDS011;30743;52.008;5.644;2022-12-05T03:44:11;32.47;;;19.65;;
45007;SDS011;30743;52.008;5.644;2022-12-05T03:46:44;36.35;;;20.00;;
45007;SDS011;30743;52.008;5.644;2022-12-05T03:49:19;35.80;;;19.63;;
45007;SDS011;30743;52.008;5.644;2022-12-05T03:51:52;31.88;;;17.83;;
45007;SDS011;30743;52.008;5.644;2022-12-05T03:54:22;33.67;;;18.50;;
45007;SDS011;30743;52.008;5.644;2022-12-05T03:56:57;36.08;;;19.13;;
45007;SDS011;30743;52.008;5.644;2022-12-05T03:59:49;34.50;;;18.73;;
45007;SDS011;30743;52.008;5.644;2022-12-05T04:02:50;30.73;;;18.73;;
45007;SDS011;30743;52.008;5.644;2022-12-05T04:05:22;32.72;;;18.27;;
45007;SDS011;30743;52.008;5.644;2022-12-05T04:07:58;31.20;;;17.45;;
45007;SDS011;30743;52.008;5.644;2022-12-05T04:10:30;35.30;;;19.85;;
45007;SDS011;30743;52.008;5.644;2022-12-05T04:13:12;31.10;;;18.65;;
45007;SDS011;30743;52.008;5.644;2022-12-05T04:15:58;35.17;;;19.25;;
45007;SDS011;30743;52.008;5.644;2022-12-05T04:19:05;30.60;;;17.40;;
45007;SDS011;30743;52.008;5.644;2022-12-05T04:21:38;30.33;;;17.23;;
45007;SDS011;30743;52.008;5.644;2022-12-05T04:24:17;31.95;;;17.65;;
45007;SDS011;30743;52.008;5.644;2022-12-05T04:27:26;31.83;;;17.67;;
45007;SDS011;30743;52.008;5.644;2022-12-05T04:30:15;30.73;;;16.92;;
45007;SDS011;30743;52.008;5.644;2022-12-05T04:35:13;27.90;;;16.27;;
45007;SDS011;30743;52.008;5.644;2022-12-05T04:37:51;27.48;;;17.00;;
45007;SDS011;30743;52.008;5.644;2022-12-05T04:42:50;29.27;;;16.25;;
45007;SDS011;30743;52.008;5.644;2022-12-05T04:45:18;30.40;;;16.67;;
45007;SDS011;30743;52.008;5.644;2022-12-05T04:47:49;32.22;;;17.45;;
45007;SDS011;30743;52.008;5.644;2022-12-05T04:50:19;30.63;;;17.73;;
45007;SDS011;30743;52.008;5.644;2022-12-05T04:52:47;28.33;;;16.30;;
45007;SDS011;30743;52.008;5.644;2022-12-05T04:55:19;29.08;;;16.73;;
45007;SDS011;30743;52.008;5.644;2022-12-05T04:58:04;27.63;;;16.67;;
45007;SDS011;30743;52.008;5.644;2022-12-05T05:00:45;32.42;;;18.40;;
45007;SDS011;30743;52.008;5.644;2022-12-05T05:06:06;28.60;;;17.13;;
45007;SDS011;30743;52.008;5.644;2022-12-05T05:08:34;26.80;;;16.48;;
45007;SDS011;30743;52.008;5.644;2022-12-05T05:11:08;28.02;;;15.88;;
45007;SDS011;30743;52.008;5.644;2022-12-05T05:13:38;31.10;;;16.38;;
45007;SDS011;30743;52.008;5.644;2022-12-05T05:16:05;29.42;;;16.70;;
45007;SDS011;30743;52.008;5.644;2022-12-05T05:18:30;23.38;;;14.88;;
45007;SDS011;30743;52.008;5.644;2022-12-05T05:20:56;26.60;;;16.48;;
45007;SDS011;30743;52.008;5.644;2022-12-05T05:23:22;28.75;;;16.88;;
45007;SDS011;30743;52.008;5.644;2022-12-05T05:25:51;29.13;;;16.90;;
45007;SDS011;30743;52.008;5.644;2022-12-05T05:28:18;28.50;;;16.20;;
45007;SDS011;30743;52.008;5.644;2022-12-05T05:30:43;26.42;;;16.52;;
45007;SDS011;30743;52.008;5.644;2022-12-05T05:33:09;27.30;;;16.40;;
45007;SDS011;30743;52.008;5.644;2022-12-05T05:35:35;28.25;;;17.05;;
45007;SDS011;30743;52.008;5.644;2022-12-05T05:38:01;27.75;;;16.23;;
45007;SDS011;30743;52.008;5.644;2022-12-05T05:40:27;27.15;;;16.95;;
45007;SDS011;30743;52.008;5.644;2022-12-05T05:42:52;25.70;;;16.05;;
45007;SDS011;30743;52.008;5.644;2022-12-05T05:45:18;26.00;;;16.17;;
45007;SDS011;30743;52.008;5.644;2022-12-05T05:47:44;22.90;;;15.55;;
45007;SDS011;30743;52.008;5.644;2022-12-05T05:50:11;25.48;;;15.85;;
45007;SDS011;30743;52.008;5.644;2022-12-05T05:52:37;28.00;;;15.40;;
45007;SDS011;30743;52.008;5.644;2022-12-05T05:55:03;26.63;;;15.70;;
45007;SDS011;30743;52.008;5.644;2022-12-05T05:57:30;24.73;;;15.43;;
45007;SDS011;30743;52.008;5.644;2022-12-05T05:59:56;25.85;;;16.05;;
45007;SDS011;30743;52.008;5.644;2022-12-05T06:02:21;27.17;;;14.73;;
45007;SDS011;30743;52.008;5.644;2022-12-05T06:04:47;23.83;;;15.23;;
45007;SDS011;30743;52.008;5.644;2022-12-05T06:07:12;25.83;;;15.88;;
45007;SDS011;30743;52.008;5.644;2022-12-05T06:09:38;23.67;;;14.65;;
45007;SDS011;30743;52.008;5.644;2022-12-05T06:12:03;24.33;;;15.23;;
45007;SDS011;30743;52.008;5.644;2022-12-05T06:14:29;23.60;;;15.10;;
45007;SDS011;30743;52.008;5.644;2022-12-05T06:16:55;24.45;;;15.30;;
45007;SDS011;30743;52.008;5.644;2022-12-05T06:19:20;28.40;;;15.95;;
45007;SDS011;30743;52.008;5.644;2022-12-05T06:21:47;26.88;;;16.42;;
45007;SDS011;30743;52.008;5.644;2022-12-05T06:24:14;21.88;;;14.45;;
45007;SDS011;30743;52.008;5.644;2022-12-05T06:26:40;23.75;;;15.18;;
45007;SDS011;30743;52.008;5.644;2022-12-05T06:29:05;25.52;;;14.98;;
45007;SDS011;30743;52.008;5.644;2022-12-05T06:31:31;24.85;;;15.27;;
45007;SDS011;30743;52.008;5.644;2022-12-05T06:34:01;24.52;;;14.68;;
45007;SDS011;30743;52.008;5.644;2022-12-05T06:36:27;23.67;;;14.43;;
45007;SDS011;30743;52.008;5.644;2022-12-05T06:38:54;24.38;;;15.48;;
45007;SDS011;30743;52.008;5.644;2022-12-05T06:41:23;24.60;;;15.07;;
45007;SDS011;30743;52.008;5.644;2022-12-05T06:43:56;24.10;;;14.65;;
45007;SDS011;30743;52.008;5.644;2022-12-05T06:46:22;22.77;;;15.18;;
45007;SDS011;30743;52.008;5.644;2022-12-05T06:48:52;24.35;;;15.55;;
45007;SDS011;30743;52.008;5.644;2022-12-05T06:51:20;25.48;;;16.40;;
45007;SDS011;30743;52.008;5.644;2022-12-05T06:53:45;28.08;;;17.30;;
45007;SDS011;30743;52.008;5.644;2022-12-05T06:56:15;23.92;;;16.00;;
45007;SDS011;30743;52.008;5.644;2022-12-05T06:58:42;27.05;;;16.75;;
45007;SDS011;30743;52.008;5.644;2022-12-05T07:01:13;22.77;;;15.27;;
45007;SDS011;30743;52.008;5.644;2022-12-05T07:04:02;23.67;;;15.07;;
45007;SDS011;30743;52.008;5.644;2022-12-05T07:06:30;20.45;;;13.48;;
45007;SDS011;30743;52.008;5.644;2022-12-05T07:08:56;22.38;;;14.95;;
45007;SDS011;30743;52.008;5.644;2022-12-05T07:11:22;23.25;;;13.93;;
45007;SDS011;30743;52.008;5.644;2022-12-05T07:13:47;22.02;;;14.25;;
45007;SDS011;30743;52.008;5.644;2022-12-05T07:16:13;21.67;;;13.90;;
45007;SDS011;30743;52.008;5.644;2022-12-05T07:18:38;23.13;;;14.98;;
45007;SDS011;30743;52.008;5.644;2022-12-05T07:21:05;25.15;;;16.02;;
45007;SDS011;30743;52.008;5.644;2022-12-05T07:23:32;25.08;;;16.55;;
45007;SDS011;30743;52.008;5.644;2022-12-05T07:25:58;26.30;;;17.00;;
45007;SDS011;30743;52.008;5.644;2022-12-05T07:28:23;24.17;;;15.90;;
45007;SDS011;30743;52.008;5.644;2022-12-05T07:30:59;25.25;;;17.45;;
45007;SDS011;30743;52.008;5.644;2022-12-05T07:33:26;23.60;;;16.48;;
45007;SDS011;30743;52.008;5.644;2022-12-05T07:35:51;23.67;;;15.88;;
45007;SDS011;30743;52.008;5.644;2022-12-05T07:38:17;25.00;;;17.70;;
45007;SDS011;30743;52.008;5.644;2022-12-05T07:40:42;28.27;;;19.10;;
45007;SDS011;30743;52.008;5.644;2022-12-05T07:43:08;32.03;;;18.80;;
45007;SDS011;30743;52.008;5.644;2022-12-05T07:45:33;27.48;;;17.55;;
45007;SDS011;30743;52.008;5.644;2022-12-05T07:48:00;27.38;;;18.85;;
45007;SDS011;30743;52.008;5.644;2022-12-05T07:50:25;27.98;;;18.52;;
45007;SDS011;30743;52.008;5.644;2022-12-05T07:52:51;27.98;;;18.20;;
45007;SDS011;30743;52.008;5.644;2022-12-05T07:55:16;26.52;;;17.50;;
45007;SDS011;30743;52.008;5.644;2022-12-05T07:57:42;27.10;;;17.48;;
45007;SDS011;30743;52.008;5.644;2022-12-05T08:00:08;26.55;;;16.90;;
45007;SDS011;30743;52.008;5.644;2022-12-05T08:02:34;23.88;;;16.75;;
45007;SDS011;30743;52.008;5.644;2022-12-05T08:04:59;25.10;;;16.38;;
45007;SDS011;30743;52.008;5.644;2022-12-05T08:07:24;22.48;;;15.20;;
45007;SDS011;30743;52.008;5.644;2022-12-05T08:09:50;24.13;;;16.33;;
45007;SDS011;30743;52.008;5.644;2022-12-05T08:12:15;26.67;;;17.50;;
45007;SDS011;30743;52.008;5.644;2022-12-05T08:14:41;27.17;;;17.35;;
45007;SDS011;30743;52.008;5.644;2022-12-05T08:17:06;23.05;;;15.13;;
45007;SDS011;30743;52.008;5.644;2022-12-05T08:19:32;21.15;;;13.63;;
45007;SDS011;30743;52.008;5.644;2022-12-05T08:21:57;22.42;;;13.75;;
45007;SDS011;30743;52.008;5.644;2022-12-05T08:24:23;22.20;;;15.05;;
45007;SDS011;30743;52.008;5.644;2022-12-05T08:26:49;19.67;;;13.95;;
45007;SDS011;30743;52.008;5.644;2022-12-05T08:29:18;21.02;;;13.15;;
45007;SDS011;30743;52.008;5.644;2022-12-05T08:31:46;20.02;;;13.43;;
45007;SDS011;30743;52.008;5.644;2022-12-05T08:34:14;18.73;;;12.77;;
45007;SDS011;30743;52.008;5.644;2022-12-05T08:36:41;19.88;;;13.02;;
45007;SDS011;30743;52.008;5.644;2022-12-05T08:39:09;22.63;;;13.00;;
45007;SDS011;30743;52.008;5.644;2022-12-05T08:41:38;17.52;;;12.45;;
45007;SDS011;30743;52.008;5.644;2022-12-05T08:44:04;20.58;;;12.88;;
45007;SDS011;30743;52.008;5.644;2022-12-05T08:46:32;22.85;;;14.02;;
45007;SDS011;30743;52.008;5.644;2022-12-05T08:49:00;21.17;;;13.25;;
45007;SDS011;30743;52.008;5.644;2022-12-05T08:53:55;22.10;;;13.73;;
45007;SDS011;30743;52.008;5.644;2022-12-05T08:56:20;21.77;;;14.50;;
45007;SDS011;30743;52.008;5.644;2022-12-05T08:58:46;24.13;;;15.48;;
45007;SDS011;30743;52.008;5.644;2022-12-05T09:01:13;24.45;;;15.48;;
45007;SDS011;30743;52.008;5.644;2022-12-05T09:03:41;28.27;;;17.63;;
45007;SDS011;30743;52.008;5.644;2022-12-05T09:06:18;27.85;;;17.63;;
45007;SDS011;30743;52.008;5.644;2022-12-05T09:08:45;30.30;;;17.33;;
45007;SDS011;30743;52.008;5.644;2022-12-05T09:11:12;27.10;;;16.73;;
45007;SDS011;30743;52.008;5.644;2022-12-05T09:13:39;29.63;;;18.20;;
45007;SDS011;30743;52.008;5.644;2022-12-05T09:18:35;30.38;;;19.40;;
45007;SDS011;30743;52.008;5.644;2022-12-05T09:21:05;32.40;;;19.80;;
45007;SDS011;30743;52.008;5.644;2022-12-05T09:23:35;31.10;;;18.27;;
45007;SDS011;30743;52.008;5.644;2022-12-05T09:26:01;27.15;;;16.55;;
45007;SDS011;30743;52.008;5.644;2022-12-05T09:28:27;28.48;;;16.17;;
45007;SDS011;30743;52.008;5.644;2022-12-05T09:31:01;28.60;;;16.65;;
45007;SDS011;30743;52.008;5.644;2022-12-05T09:33:28;29.25;;;17.08;;
45007;SDS011;30743;52.008;5.644;2022-12-05T09:35:55;30.23;;;18.08;;
45007;SDS011;30743;52.008;5.644;2022-12-05T09:38:21;29.80;;;16.95;;
45007;SDS011;30743;52.008;5.644;2022-12-05T09:40:49;26.48;;;15.80;;
45007;SDS011;30743;52.008;5.644;2022-12-05T09:43:42;27.13;;;16.70;;
45007;SDS011;30743;52.008;5.644;2022-12-05T09:46:18;27.10;;;16.50;;
45007;SDS011;30743;52.008;5.644;2022-12-05T09:48:54;27.90;;;15.80;;
45007;SDS011;30743;52.008;5.644;2022-12-05T09:51:20;29.13;;;17.17;;
45007;SDS011;30743;52.008;5.644;2022-12-05T09:53:47;30.95;;;16.95;;
45007;SDS011;30743;52.008;5.644;2022-12-05T09:56:28;27.05;;;16.88;;
45007;SDS011;30743;52.008;5.644;2022-12-05T09:58:55;26.65;;;15.75;;
45007;SDS011;30743;52.008;5.644;2022-12-05T10:01:31;27.23;;;16.50;;
45007;SDS011;30743;52.008;5.644;2022-12-05T10:07:16;32.08;;;18.23;;
45007;SDS011;30743;52.008;5.644;2022-12-05T10:09:46;27.88;;;17.05;;
45007;SDS011;30743;52.008;5.644;2022-12-05T10:12:22;26.73;;;15.80;;
45007;SDS011;30743;52.008;5.644;2022-12-05T10:15:12;29.17;;;16.75;;
45007;SDS011;30743;52.008;5.644;2022-12-05T10:17:46;34.22;;;18.63;;
45007;SDS011;30743;52.008;5.644;2022-12-05T10:20:21;28.83;;;17.67;;
45007;SDS011;30743;52.008;5.644;2022-12-05T10:23:03;24.35;;;15.73;;
45007;SDS011;30743;52.008;5.644;2022-12-05T10:25:35;27.40;;;16.58;;
45007;SDS011;30743;52.008;5.644;2022-12-05T10:28:03;27.33;;;16.02;;
45007;SDS011;30743;52.008;5.644;2022-12-05T10:30:36;22.80;;;15.38;;
45007;SDS011;30743;52.008;5.644;2022-12-05T10:33:20;26.92;;;16.38;;
45007;SDS011;30743;52.008;5.644;2022-12-05T10:35:46;26.17;;;15.80;;
45007;SDS011;30743;52.008;5.644;2022-12-05T10:38:28;27.30;;;16.45;;
45007;SDS011;30743;52.008;5.644;2022-12-05T10:40:56;26.75;;;15.32;;
45007;SDS011;30743;52.008;5.644;2022-12-05T10:43:28;24.05;;;15.57;;
45007;SDS011;30743;52.008;5.644;2022-12-05T10:45:55;23.35;;;15.07;;
45007;SDS011;30743;52.008;5.644;2022-12-05T10:48:21;24.15;;;15.02;;
45007;SDS011;30743;52.008;5.644;2022-12-05T10:50:48;22.77;;;14.45;;
45007;SDS011;30743;52.008;5.644;2022-12-05T10:53:26;23.00;;;14.50;;
45007;SDS011;30743;52.008;5.644;2022-12-05T10:56:05;23.05;;;14.65;;
45007;SDS011;30743;52.008;5.644;2022-12-05T10:59:13;24.33;;;14.63;;
45007;SDS011;30743;52.008;5.644;2022-12-05T11:01:44;23.60;;;14.75;;
45007;SDS011;30743;52.008;5.644;2022-12-05T11:04:19;22.77;;;14.77;;
45007;SDS011;30743;52.008;5.644;2022-12-05T11:06:58;22.33;;;13.40;;
45007;SDS011;30743;52.008;5.644;2022-12-05T11:09:27;22.52;;;13.13;;
45007;SDS011;30743;52.008;5.644;2022-12-05T11:14:57;22.95;;;13.63;;
45007;SDS011;30743;52.008;5.644;2022-12-05T11:17:30;20.08;;;13.10;;
45007;SDS011;30743;52.008;5.644;2022-12-05T11:19:56;22.13;;;12.32;;
45007;SDS011;30743;52.008;5.644;2022-12-05T11:22:29;24.25;;;12.27;;
45007;SDS011;30743;52.008;5.644;2022-12-05T11:24:56;17.63;;;11.85;;
45007;SDS011;30743;52.008;5.644;2022-12-05T11:27:29;17.60;;;11.68;;
45007;SDS011;30743;52.008;5.644;2022-12-05T11:30:00;18.25;;;11.20;;
45007;SDS011;30743;52.008;5.644;2022-12-05T11:32:29;17.15;;;11.30;;
45007;SDS011;30743;52.008;5.644;2022-12-05T11:37:48;14.82;;;10.40;;
45007;SDS011;30743;52.008;5.644;2022-12-05T11:43:16;15.18;;;10.70;;
45007;SDS011;30743;52.008;5.644;2022-12-05T11:51:35;12.80;;;9.50;;
45007;SDS011;30743;52.008;5.644;2022-12-05T11:56:58;13.77;;;9.32;;
45007;SDS011;30743;52.008;5.644;2022-12-05T12:07:49;12.57;;;9.10;;
45007;SDS011;30743;52.008;5.644;2022-12-05T12:10:32;15.30;;;8.88;;
45007;SDS011;30743;52.008;5.644;2022-12-05T12:32:15;9.15;;;6.70;;
45007;SDS011;30743;52.008;5.644;2022-12-05T12:51:55;5.55;;;4.10;;
45007;SDS011;30743;52.008;5.644;2022-12-05T12:54:29;5.85;;;4.00;;
45007;SDS011;30743;52.008;5.644;2022-12-05T12:57:19;5.00;;;3.50;;
45007;SDS011;30743;52.008;5.644;2022-12-05T13:02:45;4.18;;;3.33;;
45007;SDS011;30743;52.008;5.644;2022-12-05T13:05:38;4.22;;;2.78;;
45007;SDS011;30743;52.008;5.644;2022-12-05T13:08:33;4.22;;;2.95;;
45007;SDS011;30743;52.008;5.644;2022-12-05T13:11:06;3.95;;;2.70;;
45007;SDS011;30743;52.008;5.644;2022-12-05T13:13:35;2.58;;;2.00;;
45007;SDS011;30743;52.008;5.644;2022-12-05T13:16:12;2.53;;;1.92;;
45007;SDS011;30743;52.008;5.644;2022-12-05T13:18:46;3.22;;;1.92;;
45007;SDS011;30743;52.008;5.644;2022-12-05T13:21:12;2.88;;;1.80;;
45007;SDS011;30743;52.008;5.644;2022-12-05T13:23:44;3.28;;;1.45;;
45007;SDS011;30743;52.008;5.644;2022-12-05T13:26:12;4.90;;;1.58;;
45007;SDS011;30743;52.008;5.644;2022-12-05T13:28:50;2.75;;;1.60;;
45007;SDS011;30743;52.008;5.644;2022-12-05T13:31:32;3.25;;;1.80;;
45007;SDS011;30743;52.008;5.644;2022-12-05T13:34:05;2.50;;;1.45;;
45007;SDS011;30743;52.008;5.644;2022-12-05T13:36:54;2.35;;;1.73;;
45007;SDS011;30743;52.008;5.644;2022-12-05T13:39:41;2.35;;;1.48;;
45007;SDS011;30743;52.008;5.644;2022-12-05T13:42:34;4.10;;;1.83;;
45007;SDS011;30743;52.008;5.644;2022-12-05T13:50:20;1.88;;;1.45;;
45007;SDS011;30743;52.008;5.644;2022-12-05T13:52:52;2.17;;;1.52;;
45007;SDS011;30743;52.008;5.644;2022-12-05T13:57:57;3.55;;;1.63;;
45007;SDS011;30743;52.008;5.644;2022-12-05T14:02:52;2.70;;;1.70;;
45007;SDS011;30743;52.008;5.644;2022-12-05T14:12:50;1.67;;;1.25;;
45007;SDS011;30743;52.008;5.644;2022-12-05T14:16:35;2.15;;;1.40;;
45007;SDS011;30743;52.008;5.644;2022-12-05T14:18:12;1.92;;;1.40;;
45007;SDS011;30743;52.008;5.644;2022-12-05T14:20:45;1.73;;;1.50;;
45007;SDS011;30743;52.008;5.644;2022-12-05T14:26:16;4.13;;;2.20;;
45007;SDS011;30743;52.008;5.644;2022-12-05T14:29:05;3.00;;;1.73;;
45007;SDS011;30743;52.008;5.644;2022-12-05T14:34:24;2.88;;;1.80;;
45007;SDS011;30743;52.008;5.644;2022-12-05T14:37:02;3.17;;;2.08;;
45007;SDS011;30743;52.008;5.644;2022-12-05T14:39:45;3.70;;;2.28;;
45007;SDS011;30743;52.008;5.644;2022-12-05T14:42:20;4.15;;;2.20;;
45007;SDS011;30743;52.008;5.644;2022-12-05T14:44:50;3.08;;;2.42;;
45007;SDS011;30743;52.008;5.644;2022-12-05T14:47:20;2.80;;;2.00;;
45007;SDS011;30743;52.008;5.644;2022-12-05T14:49:55;2.95;;;2.40;;
45007;SDS011;30743;52.008;5.644;2022-12-05T14:52:24;4.50;;;2.47;;
45007;SDS011;30743;52.008;5.644;2022-12-05T14:54:51;4.15;;;2.63;;
45007;SDS011;30743;52.008;5.644;2022-12-05T14:57:21;3.08;;;2.22;;
45007;SDS011;30743;52.008;5.644;2022-12-05T14:59:51;2.65;;;2.25;;
45007;SDS011;30743;52.008;5.644;2022-12-05T15:02:30;3.13;;;2.28;;
45007;SDS011;30743;52.008;5.644;2022-12-05T15:07:44;2.95;;;2.25;;
45007;SDS011;30743;52.008;5.644;2022-12-05T15:13:12;4.60;;;2.72;;
45007;SDS011;30743;52.008;5.644;2022-12-05T15:15:42;4.05;;;2.70;;
45007;SDS011;30743;52.008;5.644;2022-12-05T15:18:33;5.30;;;2.40;;
45007;SDS011;30743;52.008;5.644;2022-12-05T15:21:20;3.95;;;2.38;;
45007;SDS011;30743;52.008;5.644;2022-12-05T15:24:15;3.22;;;2.40;;
45007;SDS011;30743;52.008;5.644;2022-12-05T15:26:46;3.85;;;2.65;;
45007;SDS011;30743;52.008;5.644;2022-12-05T15:31:55;3.05;;;2.22;;
45007;SDS011;30743;52.008;5.644;2022-12-05T15:36:56;5.00;;;2.65;;
45007;SDS011;30743;52.008;5.644;2022-12-05T15:39:55;3.67;;;2.50;;
45007;SDS011;30743;52.008;5.644;2022-12-05T15:42:28;4.90;;;2.53;;
45007;SDS011;30743;52.008;5.644;2022-12-05T15:47:40;4.32;;;2.60;;
45007;SDS011;30743;52.008;5.644;2022-12-05T15:50:18;3.60;;;2.20;;
45007;SDS011;30743;52.008;5.644;2022-12-05T15:55:45;3.75;;;2.67;;
45007;SDS011;30743;52.008;5.644;2022-12-05T15:58:22;4.50;;;3.00;;
45007;SDS011;30743;52.008;5.644;2022-12-05T16:00:57;3.80;;;2.35;;
45007;SDS011;30743;52.008;5.644;2022-12-05T16:03:30;3.28;;;2.40;;
45007;SDS011;30743;52.008;5.644;2022-12-05T16:06:06;3.80;;;2.47;;
45007;SDS011;30743;52.008;5.644;2022-12-05T16:08:43;4.78;;;2.72;;
45007;SDS011;30743;52.008;5.644;2022-12-05T16:11:11;4.93;;;2.60;;
45007;SDS011;30743;52.008;5.644;2022-12-05T16:13:44;4.13;;;2.65;;
45007;SDS011;30743;52.008;5.644;2022-12-05T16:16:17;3.90;;;2.58;;
45007;SDS011;30743;52.008;5.644;2022-12-05T16:18:52;3.42;;;2.65;;
45007;SDS011;30743;52.008;5.644;2022-12-05T16:21:35;3.40;;;2.47;;
45007;SDS011;30743;52.008;5.644;2022-12-05T16:24:05;4.78;;;3.50;;
45007;SDS011;30743;52.008;5.644;2022-12-05T16:26:52;3.65;;;2.80;;
45007;SDS011;30743;52.008;5.644;2022-12-05T16:29:28;4.32;;;2.83;;
45007;SDS011;30743;52.008;5.644;2022-12-05T16:31:56;3.20;;;2.67;;
45007;SDS011;30743;52.008;5.644;2022-12-05T16:34:23;4.90;;;3.50;;
45007;SDS011;30743;52.008;5.644;2022-12-05T16:36:51;5.05;;;3.70;;
45007;SDS011;30743;52.008;5.644;2022-12-05T16:39:18;5.85;;;3.38;;
45007;SDS011;30743;52.008;5.644;2022-12-05T16:41:45;5.95;;;4.00;;
45007;SDS011;30743;52.008;5.644;2022-12-05T16:47:21;5.13;;;3.63;;
45007;SDS011;30743;52.008;5.644;2022-12-05T16:49:49;5.47;;;3.60;;
45007;SDS011;30743;52.008;5.644;2022-12-05T16:52:14;4.80;;;3.47;;
45007;SDS011;30743;52.008;5.644;2022-12-05T16:54:41;5.65;;;3.88;;
45007;SDS011;30743;52.008;5.644;2022-12-05T16:57:10;5.03;;;3.55;;
45007;SDS011;30743;52.008;5.644;2022-12-05T16:59:38;4.47;;;3.50;;
45007;SDS011;30743;52.008;5.644;2022-12-05T17:02:09;4.30;;;3.15;;
45007;SDS011;30743;52.008;5.644;2022-12-05T17:04:38;5.18;;;3.45;;
45007;SDS011;30743;52.008;5.644;2022-12-05T17:07:03;4.95;;;3.30;;
45007;SDS011;30743;52.008;5.644;2022-12-05T17:09:29;5.45;;;3.97;;
45007;SDS011;30743;52.008;5.644;2022-12-05T17:11:57;4.28;;;3.05;;
45007;SDS011;30743;52.008;5.644;2022-12-05T17:14:40;4.47;;;3.38;;
45007;SDS011;30743;52.008;5.644;2022-12-05T17:17:11;4.65;;;3.47;;